Alta, Indiana
Current Conditions -  °F | °C
As of 6:55 AM on Thursday 27 Nov 2014 (Local Time) from KPRG Reporting Station
Haze Haze  
Wind Chill: 16°   Ceiling: 9000
Heat Index: 25°   Visibility: 5mi
Dew Point: 23°   Wind: 8mph
Humidity: 94%   Direction: 290°WNW
Pressure: 30.3"   Gusts: NA
Location:  39.7643°N, 87.4119°W
Report Text: KPRG 271155Z AUTO 29007KT 5SM BR OVC090 M04/M05 A3030 RMK AO2 T10411049 11017 21047
Loading
Personal Weather Stations






























Interactive Weather Map New forecast layout! Learn more

10-Day Weather Forecast

Advertisements
Track Severe Weather on mobile